Time;durP1;ratioP1;P1;durP2;ratioP2;P2;SDS_P1;SDS_P2;PMS_P1;PMS_P2;Temp;Humidity;BMP_temperature;BMP_pressure;BME280_temperature;BME280_humidity;BME280_pressure;Samples;Min_cycle;Max_cycle;Signal;HPM_P1;HPM_P2
2024/04/02 00:00:43;;;;;;;0.00;0.00;;;;;;;;;;6218022;23;20230;-90
2024/04/02 00:03:10;;;;;;;0.03;0.03;;;;;;;;;;6218396;23;20032;-91
2024/04/02 00:05:36;;;;;;;0.00;0.00;;;;;;;;;;6217312;23;20091;-92
2024/04/02 00:08:03;;;;;;;0.10;0.10;;;;;;;;;;6199216;23;20009;-93
2024/04/02 00:10:30;;;;;;;0.00;0.00;;;;;;;;;;6186988;23;20005;-92
2024/04/02 00:12:56;;;;;;;0.00;0.00;;;;;;;;;;6188388;23;20001;-92
2024/04/02 00:15:22;;;;;;;0.00;0.00;;;;;;;;;;6187873;23;20449;-92
2024/04/02 00:17:48;;;;;;;0.00;0.00;;;;;;;;;;6188798;23;20376;-92
2024/04/02 00:20:14;;;;;;;0.10;0.10;;;;;;;;;;6187214;23;20345;-92
2024/04/02 00:22:44;;;;;;;0.00;0.00;;;;;;;;;;6188310;23;20016;-91
2024/04/02 00:25:10;;;;;;;0.00;0.00;;;;;;;;;;6188049;23;20005;-91
2024/04/02 00:27:36;;;;;;;0.00;0.00;;;;;;;;;;6187887;23;20015;-92
2024/04/02 00:30:03;;;;;;;0.00;0.00;;;;;;;;;;6188804;23;20008;-92
2024/04/02 00:32:29;;;;;;;0.10;0.10;;;;;;;;;;6186380;23;20004;-92
2024/04/02 00:34:55;;;;;;;0.05;0.05;;;;;;;;;;6187494;23;20004;-92
2024/04/02 00:37:21;;;;;;;0.00;0.00;;;;;;;;;;6187905;23;20000;-92
2024/04/02 00:39:47;;;;;;;0.10;0.10;;;;;;;;;;6188072;23;20058;-92
2024/04/02 00:42:13;;;;;;;0.00;0.00;;;;;;;;;;6188238;23;20445;-92
2024/04/02 00:44:39;;;;;;;0.00;0.00;;;;;;;;;;6188759;23;20011;-91
2024/04/02 00:47:13;;;;;;;0.00;0.00;;;;;;;;;;6188485;23;20031;-92
2024/04/02 00:49:40;;;;;;;0.00;0.00;;;;;;;;;;6188694;23;20001;-92
2024/04/02 00:52:06;;;;;;;0.00;0.00;;;;;;;;;;6187207;23;20063;-92
2024/04/02 00:54:33;;;;;;;0.10;0.10;;;9.40;99.90;;;;;;6186960;23;20048;-91
2024/04/02 00:56:59;;;;;;;0.00;0.00;;;;;;;;;;6214941;23;20075;-92
2024/04/02 00:59:25;;;;;;;0.00;0.00;;;;;;;;;;6187869;23;20031;-92
2024/04/02 01:01:51;;;;;;;0.00;0.00;;;;;;;;;;6187357;23;20005;-91
2024/04/02 01:04:20;;;;;;;0.00;0.00;;;;;;;;;;6187691;23;20079;-91
2024/04/02 01:06:47;;;;;;;0.00;0.00;;;9.20;99.90;;;;;;6187141;23;20019;-91
2024/04/02 01:09:14;;;;;;;0.00;0.00;;;9.20;99.90;;;;;;6187231;23;20005;-93
2024/04/02 01:11:41;;;;;;;0.00;0.00;;;9.20;99.90;;;;;;6187976;23;20028;-92
2024/04/02 01:14:07;;;;;;;0.10;0.10;;;;;;;;;;6188816;23;20016;-92
2024/04/02 01:16:33;;;;;;;0.10;0.10;;;;;;;;;;6187273;23;20013;-91
2024/04/02 01:18:59;;;;;;;0.00;0.00;;;;;;;;;;6188301;23;20015;-92
2024/04/02 01:21:27;;;;;;;0.00;0.00;;;;;;;;;;6187057;23;20111;-92
2024/04/02 01:23:52;;;;;;;0.00;0.00;;;;;;;;;;6187142;23;20009;-91
2024/04/02 01:26:19;;;;;;;0.00;0.00;;;;;;;;;;6187941;23;20050;-92
2024/04/02 01:28:44;;;;;;;0.00;0.00;;;;;;;;;;6188500;23;20001;-92
2024/04/02 01:31:10;;;;;;;0.00;0.00;;;;;;;;;;6188505;23;20142;-92
2024/04/02 01:33:36;;;;;;;0.10;0.10;;;;;;;;;;6187726;23;20059;-92
2024/04/02 01:36:02;;;;;;;0.10;0.10;;;;;;;;;;6186561;23;20001;-92
2024/04/02 01:38:28;;;;;;;0.10;0.10;;;;;;;;;;6187434;23;20035;-92
2024/04/02 01:40:54;;;;;;;0.00;0.00;;;;;;;;;;6187607;23;20005;-92
2024/04/02 01:43:20;;;;;;;0.10;0.10;;;;;;;;;;6188217;23;20000;-91
2024/04/02 01:45:46;;;;;;;0.00;0.00;;;;;;;;;;6188023;23;20315;-91
2024/04/02 01:48:12;;;;;;;0.10;0.10;;;;;;;;;;6187334;23;20337;-91
2024/04/02 01:50:38;;;;;;;0.00;0.00;;;;;;;;;;6186209;23;20087;-92
2024/04/02 01:53:04;;;;;;;0.00;0.00;;;;;;;;;;6188183;23;20096;-91
2024/04/02 01:55:30;;;;;;;0.00;0.00;;;;;;;;;;6213126;23;20032;-92
2024/04/02 01:57:56;;;;;;;0.10;0.10;;;;;;;;;;6187599;23;20001;-92
2024/04/02 02:00:21;;;;;;;0.10;0.10;;;;;;;;;;6187347;23;20012;-92
2024/04/02 02:02:50;;;;;;;0.00;0.00;;;;;;;;;;6187070;23;20043;-92
2024/04/02 02:05:15;;;;;;;0.10;0.10;;;;;;;;;;6187155;23;20000;-92
2024/04/02 02:07:41;;;;;;;0.00;0.00;;;;;;;;;;6195574;23;20472;-92
2024/04/02 02:10:07;;;;;;;0.00;0.00;;;;;;;;;;6211478;23;19993;-92
2024/04/02 02:12:33;;;;;;;0.05;0.05;;;;;;;;;;6211780;23;20004;-91
2024/04/02 02:14:59;;;;;;;0.00;0.00;;;;;;;;;;6211559;23;20005;-90
2024/04/02 02:17:25;;;;;;;0.00;0.00;;;;;;;;;;6211502;23;20003;-92
2024/04/02 02:19:51;;;;;;;0.00;0.00;;;;;;;;;;6212481;23;20007;-92
2024/04/02 02:22:17;;;;;;;0.10;0.10;;;;;;;;;;6209696;23;20008;-92
2024/04/02 02:24:43;;;;;;;0.00;0.00;;;;;;;;;;6215217;23;20029;-94
2024/04/02 02:27:09;;;;;;;0.00;0.00;;;;;;;;;;6240019;22;20007;-94
2024/04/02 02:29:35;;;;;;;0.05;0.05;;;;;;;;;;6240565;22;19989;-94
2024/04/02 02:32:01;;;;;;;0.00;0.00;;;;;;;;;;6224859;22;20017;-92
2024/04/02 02:34:27;;;;;;;0.05;0.05;;;;;;;;;;6213479;23;20008;-92
2024/04/02 02:36:53;;;;;;;0.10;0.10;;;;;;;;;;6213709;23;20000;-92
2024/04/02 02:39:19;;;;;;;0.00;0.00;;;;;;;;;;6214281;23;20442;-93
2024/04/02 02:41:46;;;;;;;0.10;0.10;;;;;;;;;;6214446;23;20007;-92
2024/04/02 02:44:12;;;;;;;0.08;0.08;;;;;;;;;;6214057;23;20422;-92
2024/04/02 02:46:38;;;;;;;0.00;0.00;;;;;;;;;;6213936;23;20063;-91
2024/04/02 02:49:04;;;;;;;0.03;0.03;;;;;;;;;;6214565;23;20008;-92
2024/04/02 02:51:30;;;;;;;0.10;0.10;;;;;;;;;;6211467;23;20005;-92
2024/04/02 02:53:56;;;;;;;0.10;0.10;;;;;;;;;;6212892;23;20009;-92
2024/04/02 02:56:22;;;;;;;0.00;0.00;;;;;;;;;;6212976;23;19996;-91
2024/04/02 02:58:50;;;;;;;0.00;0.00;;;;;;;;;;6214059;23;20434;-92
2024/04/02 03:01:16;;;;;;;0.08;0.08;;;;;;;;;;6213290;23;20460;-91
2024/04/02 03:03:42;;;;;;;0.00;0.00;;;;;;;;;;6212730;23;20001;-92
2024/04/02 03:06:08;;;;;;;0.10;0.10;;;;;;;;;;6213062;23;20004;-92
2024/04/02 03:08:34;;;;;;;0.00;0.00;;;;;;;;;;6212880;23;20434;-91
2024/04/02 03:11:02;;;;;;;0.10;0.10;;;9.20;99.90;;;;;;6213655;23;20009;-92
2024/04/02 03:13:28;;;;;;;0.10;0.10;;;;;;;;;;6211652;23;20004;-93
2024/04/02 03:15:54;;;;;;;0.00;0.00;;;;;;;;;;6212447;23;20044;-91
2024/04/02 03:18:20;;;;;;;0.10;0.10;;;;;;;;;;6213449;23;20035;-91
2024/04/02 03:20:46;;;;;;;0.00;0.00;;;;;;;;;;6214463;23;20460;-91
2024/04/02 03:23:12;;;;;;;0.00;0.00;;;;;;;;;;6211629;23;20001;-91
2024/04/02 03:25:38;;;;;;;0.10;0.10;;;;;;;;;;6213147;23;20009;-91
2024/04/02 03:28:05;;;;;;;0.00;0.00;;;;;;;;;;6212895;23;20004;-92
2024/04/02 03:30:31;;;;;;;0.03;0.03;;;;;;;;;;6212467;23;20008;-93
2024/04/02 03:32:57;;;;;;;0.00;0.00;;;;;;;;;;6214123;23;20090;-92
2024/04/02 03:35:23;;;;;;;0.10;0.10;;;;;;;;;;6213593;23;20113;-92
2024/04/02 03:37:48;;;;;;;0.00;0.00;;;;;;;;;;6213111;23;20008;-91
2024/04/02 03:40:14;;;;;;;0.00;0.00;;;;;;;;;;6213332;23;20008;-91
2024/04/02 03:42:40;;;;;;;0.00;0.00;;;;;;;;;;6213109;23;20012;-92
2024/04/02 03:45:07;;;;;;;0.10;0.10;;;;;;;;;;6213857;23;20001;-92
2024/04/02 03:47:33;;;;;;;0.00;0.00;;;;;;;;;;6212978;23;20004;-92
2024/04/02 03:49:59;;;;;;;0.10;0.10;;;;;;;;;;6213717;23;20000;-91
2024/04/02 03:52:24;;;;;;;0.00;0.00;;;;;;;;;;6213027;23;20015;-92
2024/04/02 03:54:50;;;;;;;0.10;0.10;;;;;;;;;;6213854;23;20064;-91
2024/04/02 03:57:16;;;;;;;0.00;0.00;;;;;;;;;;6215237;23;20047;-91
2024/04/02 03:59:42;;;;;;;0.05;0.05;;;;;;;;;;6212493;23;20008;-91
2024/04/02 04:02:08;;;;;;;0.10;0.10;;;;;;;;;;6213101;23;20028;-92
2024/04/02 04:04:34;;;;;;;0.00;0.00;;;;;;;;;;6212600;23;20051;-91
2024/04/02 04:07:00;;;;;;;0.00;0.00;;;;;;;;;;6213905;23;20080;-91
2024/04/02 04:09:26;;;;;;;0.00;0.00;;;;;;;;;;6213407;23;20096;-91
2024/04/02 04:11:53;;;;;;;0.10;0.10;;;;;;;;;;6211750;23;20032;-92
2024/04/02 04:14:19;;;;;;;0.00;0.00;;;;;;;;;;6212598;23;20019;-91
2024/04/02 04:16:44;;;;;;;0.00;0.00;;;;;;;;;;6212833;23;20008;-91
2024/04/02 04:19:10;;;;;;;0.10;0.10;;;;;;;;;;6213596;23;20011;-90
2024/04/02 04:21:36;;;;;;;0.10;0.10;;;;;;;;;;6213067;23;20015;-91
2024/04/02 04:24:02;;;;;;;0.10;0.10;;;;;;;;;;6212061;23;20080;-91
2024/04/02 04:26:28;;;;;;;0.00;0.00;;;;;;;;;;6212791;23;20051;-92
2024/04/02 04:28:54;;;;;;;0.10;0.10;;;;;;;;;;6211917;23;20028;-91
2024/04/02 04:31:20;;;;;;;0.00;0.00;;;;;;;;;;6212939;23;20015;-92
2024/04/02 04:33:46;;;;;;;0.10;0.10;;;;;;;;;;6211750;23;20012;-92
2024/04/02 04:36:12;;;;;;;0.00;0.00;;;;;;;;;;6212068;23;20323;-92
2024/04/02 04:38:38;;;;;;;0.00;0.00;;;;;;;;;;6211794;23;20011;-93
2024/04/02 04:41:04;;;;;;;0.00;0.00;;;;;;;;;;6210880;23;20016;-92
2024/04/02 04:43:30;;;;;;;0.10;0.10;;;;;;;;;;6210748;23;20031;-92
2024/04/02 04:45:58;;;;;;;0.00;0.00;;;9.00;99.90;;;;;;6213359;23;20000;-91
2024/04/02 04:48:24;;;;;;;0.05;0.05;;;;;;;;;;6212850;23;20000;-92
2024/04/02 04:50:58;;;;;;;0.10;0.10;;;9.00;99.90;;;;;;6213362;23;20001;-93
2024/04/02 04:53:24;;;;;;;0.00;0.00;;;;;;;;;;6212708;23;20071;-91
2024/04/02 04:55:50;;;;;;;0.00;0.00;;;;;;;;;;6212485;23;20058;-92
2024/04/02 04:58:15;;;;;;;0.00;0.00;;;;;;;;;;6212433;23;20032;-91
2024/04/02 05:00:41;;;;;;;0.08;0.08;;;;;;;;;;6212740;23;20032;-91
2024/04/02 05:03:07;;;;;;;0.10;0.10;;;;;;;;;;6213842;23;20003;-91
2024/04/02 05:05:33;;;;;;;0.00;0.00;;;;;;;;;;6212775;23;20016;-91
2024/04/02 05:08:18;;;;;;;0.03;0.03;;;;;;;;;;6213527;23;20051;-92
2024/04/02 05:10:44;;;;;;;0.00;0.00;;;;;;;;;;6206707;23;20055;-92
2024/04/02 05:13:11;;;;;;;0.03;0.03;;;;;;;;;;6210434;23;20001;-91
2024/04/02 05:15:37;;;;;;;0.10;0.10;;;;;;;;;;6211956;23;20336;-92
2024/04/02 05:18:03;;;;;;;0.00;0.00;;;;;;;;;;6211921;23;20035;-91
2024/04/02 05:20:29;;;;;;;0.10;0.10;;;;;;;;;;6212657;23;20009;-91
2024/04/02 05:22:55;;;;;;;0.10;0.10;;;;;;;;;;6211098;23;20004;-92
2024/04/02 05:25:21;;;;;;;0.00;0.00;;;;;;;;;;6212610;23;20131;-91
2024/04/02 05:27:48;;;;;;;0.00;0.00;;;;;;;;;;6211689;23;20004;-91
2024/04/02 05:30:14;;;;;;;0.00;0.00;;;;;;;;;;6209710;23;20005;-91
2024/04/02 05:32:40;;;;;;;0.00;0.00;;;;;;;;;;6208916;23;20028;-91
2024/04/02 05:35:06;;;;;;;0.00;0.00;;;;;;;;;;6214492;22;20005;-93
2024/04/02 05:37:32;;;;;;;0.00;0.00;;;;;;;;;;6240046;22;20020;-94
2024/04/02 05:39:58;;;;;;;0.10;0.10;;;;;;;;;;6239160;22;20031;-93
2024/04/02 05:42:24;;;;;;;0.05;0.05;;;;;;;;;;6222914;22;20021;-92
2024/04/02 05:44:50;;;;;;;0.00;0.00;;;;;;;;;;6211840;23;20369;-91
2024/04/02 05:47:17;;;;;;;0.00;0.00;;;;;;;;;;6212245;23;20001;-91
2024/04/02 05:49:43;;;;;;;0.00;0.00;;;;;;;;;;6212451;23;20005;-91
2024/04/02 05:52:08;;;;;;;0.00;0.00;;;;;;;;;;6212286;23;20380;-91
2024/04/02 05:54:34;;;;;;;0.00;0.00;;;;;;;;;;6212628;23;20009;-92
2024/04/02 05:57:00;;;;;;;0.10;0.10;;;;;;;;;;6212894;23;20278;-92
2024/04/02 05:59:26;;;;;;;0.10;0.10;;;;;;;;;;6212473;23;20000;-92
2024/04/02 06:01:52;;;;;;;0.00;0.00;;;;;;;;;;6212445;23;20001;-91
2024/04/02 06:04:18;;;;;;;0.00;0.00;;;;;;;;;;6214066;23;20008;-91
2024/04/02 06:06:47;;;;;;;0.00;0.00;;;;;;;;;;6213455;23;20005;-92
2024/04/02 06:09:13;;;;;;;0.10;0.10;;;;;;;;;;6214754;23;20035;-91
2024/04/02 06:11:39;;;;;;;0.00;0.00;;;;;;;;;;6212949;23;20437;-92
2024/04/02 06:14:04;;;;;;;0.10;0.10;;;;;;;;;;6213231;23;20008;-91
2024/04/02 06:16:30;;;;;;;0.00;0.00;;;;;;;;;;6213131;23;20012;-92
2024/04/02 06:18:56;;;;;;;0.00;0.00;;;;;;;;;;6213447;23;20015;-92
2024/04/02 06:21:22;;;;;;;0.00;0.00;;;;;;;;;;6214292;23;20040;-92
2024/04/02 06:23:48;;;;;;;0.00;0.00;;;;;;;;;;6213042;23;20020;-92
2024/04/02 06:26:17;;;;;;;0.00;0.00;;;;;;;;;;6213501;23;20000;-92
2024/04/02 06:28:43;;;;;;;0.00;0.00;;;;;;;;;;6214696;23;20009;-92
2024/04/02 06:31:09;;;;;;;0.00;0.00;;;;;;;;;;6214818;23;20032;-91
2024/04/02 06:33:35;;;;;;;0.10;0.10;;;;;;;;;;6214076;23;20417;-92
2024/04/02 06:36:01;;;;;;;0.03;0.03;;;;;;;;;;6213838;23;20031;-91
2024/04/02 06:38:27;;;;;;;0.00;0.00;;;;;;;;;;6213855;23;20326;-91
2024/04/02 06:40:53;;;;;;;0.10;0.10;;;;;;;;;;6214792;23;20015;-91
2024/04/02 06:43:19;;;;;;;0.08;0.08;;;;;;;;;;6214394;23;20091;-91
2024/04/02 06:45:55;;;;;;;0.00;0.00;;;9.80;99.90;;;;;;6214122;23;20001;-91
2024/04/02 06:48:21;;;;;;;0.00;0.00;;;9.80;99.90;;;;;;6213776;23;20001;-91
2024/04/02 06:50:58;;;;;;;0.00;0.00;;;9.90;99.90;;;;;;6214116;23;20012;-91
2024/04/02 06:53:44;;;;;;;0.10;0.10;;;;;;;;;;6212441;23;20004;-92
2024/04/02 06:56:10;;;;;;;0.00;0.00;;;;;;;;;;6214643;23;20100;-91
2024/04/02 06:58:39;;;;;;;0.00;0.00;;;;;;;;;;6214831;23;20008;-92
2024/04/02 07:01:05;;;;;;;0.00;0.00;;;;;;;;;;6214874;23;20011;-91
2024/04/02 07:03:31;;;;;;;0.10;0.10;;;;;;;;;;6214824;23;20043;-91
2024/04/02 07:05:57;;;;;;;0.00;0.00;;;;;;;;;;6215087;23;20000;-92
2024/04/02 07:08:25;;;;;;;0.00;0.00;;;;;;;;;;6214850;23;20088;-91
2024/04/02 07:11:03;;;;;;;0.00;0.00;;;10.60;99.90;;;;;;6215434;23;20395;-92
2024/04/02 07:13:39;;;;;;;0.00;0.00;;;;;;;;;;6215229;23;20091;-91
2024/04/02 07:16:05;;;;;;;0.00;0.00;;;;;;;;;;6215089;23;20095;-92
2024/04/02 07:18:37;;;;;;;0.00;0.00;;;;;;;;;;6214373;23;20464;-92
2024/04/02 07:21:07;;;;;;;0.00;0.00;;;11.00;99.90;;;;;;6215305;23;20003;-92
2024/04/02 07:23:33;;;;;;;0.00;0.00;;;;;;;;;;6215486;23;20009;-92
2024/04/02 07:25:59;;;;;;;0.00;0.00;;;;;;;;;;6214904;23;20001;-92
2024/04/02 07:28:26;;;;;;;0.00;0.00;;;;;;;;;;6215282;23;20481;-91
2024/04/02 07:30:52;;;;;;;0.00;0.00;;;;;;;;;;6214804;23;20008;-92
2024/04/02 07:33:18;;;;;;;0.00;0.00;;;;;;;;;;6215162;23;20504;-90
2024/04/02 07:35:44;;;;;;;0.00;0.00;;;;;;;;;;6214288;23;20047;-92
2024/04/02 07:38:10;;;;;;;0.00;0.00;;;;;;;;;;6214065;23;20008;-91
2024/04/02 07:40:36;;;;;;;0.00;0.00;;;;;;;;;;6213324;23;20009;-91
2024/04/02 07:43:03;;;;;;;0.00;0.00;;;;;;;;;;6214998;23;20143;-91
2024/04/02 07:45:29;;;;;;;0.00;0.00;;;;;;;;;;6213725;23;20000;-92
2024/04/02 07:47:55;;;;;;;0.00;0.00;;;;;;;;;;6214311;23;20441;-92
2024/04/02 07:50:21;;;;;;;0.00;0.00;;;;;;;;;;6215808;23;20047;-91
2024/04/02 07:52:49;;;;;;;0.00;0.00;;;;;;;;;;6215736;23;20056;-90
2024/04/02 07:55:15;;;;;;;0.00;0.00;;;;;;;;;;6215125;23;19997;-90
2024/04/02 07:57:41;;;;;;;0.00;0.00;;;;;;;;;;6214332;23;20421;-90
2024/04/02 08:00:07;;;;;;;0.00;0.00;;;11.50;99.90;;;;;;6213569;23;20004;-91
2024/04/02 08:02:33;;;;;;;0.00;0.00;;;;;;;;;;6213761;23;20402;-91
2024/04/02 08:04:59;;;;;;;0.00;0.00;;;;;;;;;;6213674;23;20063;-91
2024/04/02 08:07:25;;;;;;;0.00;0.00;;;;;;;;;;6213865;23;20004;-91
2024/04/02 08:09:51;;;;;;;0.00;0.00;;;;;;;;;;6188149;23;20001;-92
2024/04/02 08:12:17;;;;;;;0.00;0.00;;;;;;;;;;6188929;23;20008;-91
2024/04/02 08:14:43;;;;;;;0.00;0.00;;;;;;;;;;6188543;23;20008;-91
2024/04/02 08:17:09;;;;;;;0.00;0.00;;;;;;;;;;6188081;23;20364;-92
2024/04/02 08:19:34;;;;;;;0.00;0.00;;;11.90;99.90;;;;;;6187836;23;20005;-91
2024/04/02 08:22:00;;;;;;;0.00;0.00;;;;;;;;;;6187960;23;20004;-91
2024/04/02 08:24:26;;;;;;;0.00;0.00;;;12.20;99.90;;;;;;6187822;23;20001;-91
2024/04/02 08:26:52;;;;;;;0.00;0.00;;;;;;;;;;6188790;23;20003;-91
2024/04/02 08:29:18;;;;;;;0.00;0.00;;;;;;;;;;6215267;23;20377;-90
2024/04/02 08:31:44;;;;;;;0.00;0.00;;;;;;;;;;6188619;23;20055;-91
2024/04/02 08:34:11;;;;;;;0.00;0.00;;;;;;;;;;6188214;23;20083;-91
2024/04/02 08:36:37;;;;;;;0.00;0.00;;;;;;;;;;6188446;23;20001;-92
2024/04/02 08:39:06;;;;;;;0.00;0.00;;;;;;;;;;6188617;23;20083;-91
2024/04/02 08:41:32;;;;;;;0.00;0.00;;;;;;;;;;6187011;23;20087;-92
2024/04/02 08:43:58;;;;;;;0.00;0.00;;;;;;;;;;6185577;23;20039;-90
2024/04/02 08:46:31;;;;;;;0.00;0.00;;;;;;;;;;6189730;23;20362;-93
2024/04/02 08:48:57;;;;;;;0.00;0.00;;;;;;;;;;6213830;23;20031;-94
2024/04/02 08:51:23;;;;;;;0.00;0.00;;;;;;;;;;6211900;23;19992;-93
2024/04/02 08:53:51;;;;;;;0.00;0.00;;;;;;;;;;6191791;23;20055;-91
2024/04/02 08:56:17;;;;;;;0.00;0.00;;;;;;;;;;6187746;23;19996;-92
2024/04/02 08:58:47;;;;;;;0.00;0.00;;;;;;;;;;6185518;23;20076;-90
2024/04/02 09:01:14;;;;;;;0.00;0.00;;;;;;;;;;6185293;23;20009;-91
2024/04/02 09:03:40;;;;;;;0.00;0.00;;;;;;;;;;6186674;23;20005;-91
2024/04/02 09:06:06;;;;;;;0.00;0.00;;;;;;;;;;6185810;23;20087;-91
2024/04/02 09:08:53;;;;;;;0.00;0.00;;;;;;;;;;6194033;23;20426;-91
2024/04/02 09:11:19;;;;;;;0.00;0.00;;;;;;;;;;6211182;23;20390;-90
2024/04/02 09:13:45;;;;;;;0.00;0.00;;;;;;;;;;6207407;23;20004;-91
2024/04/02 09:16:14;;;;;;;0.00;0.00;;;;;;;;;;6204531;23;20068;-92
2024/04/02 09:18:42;;;;;;;0.00;0.00;;;;;;;;;;6209211;23;20001;-92
2024/04/02 09:21:09;;;;;;;0.00;0.00;;;;;;;;;;6208626;23;20034;-91
2024/04/02 09:23:35;;;;;;;0.00;0.00;;;;;;;;;;6210441;23;20087;-90
2024/04/02 09:26:01;;;;;;;0.00;0.00;;;;;;;;;;6211910;23;20425;-90
2024/04/02 09:28:27;;;;;;;0.00;0.00;;;;;;;;;;6212849;23;20004;-92
2024/04/02 09:31:01;;;;;;;0.00;0.00;;;;;;;;;;6209938;23;20008;-91
2024/04/02 09:33:28;;;;;;;0.00;0.00;;;;;;;;;;6209514;23;20080;-92
2024/04/02 09:36:10;;;;;;;0.00;0.00;;;12.90;99.90;;;;;;6209736;23;20014;-92
2024/04/02 09:38:41;;;;;;;0.00;0.00;;;13.00;99.90;;;;;;6209458;23;20500;-92
2024/04/02 09:41:07;;;;;;;0.00;0.00;;;;;;;;;;6208869;23;20004;-92
2024/04/02 09:43:33;;;;;;;0.00;0.00;;;;;;;;;;6207795;23;20000;-92
2024/04/02 09:46:03;;;;;;;0.00;0.00;;;;;;;;;;6204417;23;20001;-91
2024/04/02 09:48:30;;;;;;;0.00;0.00;;;;;;;;;;6206961;23;20008;-92
2024/04/02 09:50:57;;;;;;;0.00;0.00;;;;;;;;;;6207841;23;20031;-92
2024/04/02 09:53:24;;;;;;;0.00;0.00;;;;;;;;;;6207325;23;20039;-93
2024/04/02 09:55:52;;;;;;;0.00;0.00;;;;;;;;;;6207346;23;20012;-91
2024/04/02 09:58:18;;;;;;;0.00;0.00;;;;;;;;;;6208364;23;20442;-92
2024/04/02 10:00:46;;;;;;;0.00;0.00;;;;;;;;;;6209175;23;20017;-91
2024/04/02 10:03:13;;;;;;;0.00;0.00;;;;;;;;;;6209040;23;20005;-92
2024/04/02 10:05:39;;;;;;;0.00;0.00;;;;;;;;;;6209636;23;20028;-91
2024/04/02 10:08:07;;;;;;;0.00;0.00;;;13.30;99.90;;;;;;6210827;23;20472;-91
2024/04/02 10:10:40;;;;;;;0.00;0.00;;;13.40;99.90;;;;;;6210062;23;20391;-92
2024/04/02 10:13:06;;;;;;;0.00;0.00;;;;;;;;;;6211952;23;20009;-91
2024/04/02 10:15:33;;;;;;;0.00;0.00;;;;;;;;;;6214070;23;20388;-91
2024/04/02 10:18:00;;;;;;;0.00;0.00;;;13.10;99.90;;;;;;6211730;23;20001;-93
2024/04/02 10:20:31;;;;;;;0.00;0.00;;;13.10;99.90;;;;;;6207215;23;20413;-91
2024/04/02 10:22:57;;;;;;;0.00;0.00;;;;;;;;;;6211439;23;20032;-92
2024/04/02 10:25:24;;;;;;;0.00;0.00;;;13.20;99.90;;;;;;6210849;23;20067;-92
2024/04/02 10:27:53;;;;;;;0.00;0.00;;;;;;;;;;6211808;23;20012;-92
2024/04/02 10:30:26;;;;;;;0.00;0.00;;;13.30;99.90;;;;;;6210724;23;20088;-92
2024/04/02 10:32:53;;;;;;;0.00;0.00;;;;;;;;;;6211637;23;20013;-91
2024/04/02 10:35:29;;;;;;;0.00;0.00;;;;;;;;;;6211123;23;20015;-91
2024/04/02 10:37:56;;;;;;;0.00;0.00;;;;;;;;;;6210416;23;20032;-92
2024/04/02 10:40:22;;;;;;;0.00;0.00;;;;;;;;;;6209971;23;20353;-92
2024/04/02 10:42:49;;;;;;;0.00;0.00;;;;;;;;;;6211787;23;20012;-91
2024/04/02 10:45:15;;;;;;;0.00;0.00;;;13.00;99.90;;;;;;6210956;23;20493;-91
2024/04/02 10:47:45;;;;;;;0.00;0.00;;;;;;;;;;6213345;23;20020;-91
2024/04/02 10:50:11;;;;;;;;;;;13.10;99.90;;;;;;6212348;23;20055;-91
2024/04/02 10:52:37;;;;;;;0.00;0.00;;;;;;;;;;6211615;23;19907;-92
2024/04/02 10:55:06;;;;;;;0.00;0.00;;;;;;;;;;6214263;23;20012;-93
2024/04/02 10:57:36;;;;;;;0.00;0.00;;;;;;;;;;6212697;23;20004;-93
2024/04/02 11:00:04;;;;;;;0.00;0.00;;;;;;;;;;6212703;23;20032;-92
2024/04/02 11:02:31;;;;;;;0.00;0.00;;;;;;;;;;6211761;23;20013;-92
2024/04/02 11:04:57;;;;;;;0.00;0.00;;;;;;;;;;6212122;23;20024;-92
2024/04/02 18:11:48;;;;;;;0.00;0.00;;;11.30;99.90;;;;;;6018156;22;8474687;-92
2024/04/02 18:14:24;;;;;;;0.00;0.00;;;;;;;;;;6345139;22;20007;-91
2024/04/02 18:17:05;;;;;;;0.00;0.00;;;11.30;99.90;;;;;;6333875;22;20017;-91
2024/04/02 18:19:37;;;;;;;0.00;0.00;;;11.30;99.90;;;;;;6334421;22;20001;-91
2024/04/02 18:22:30;;;;;;;;;;;;;;;;;;;;;
2024/04/02 18:24:57;;;;;;;0.10;0.10;;;;;;;;;;6335061;22;20151;-91
2024/04/02 18:27:23;;;;;;;0.00;0.00;;;;;;;;;;6334875;22;19997;-90
2024/04/02 18:29:49;;;;;;;0.00;0.00;;;;;;;;;;6334990;22;19995;-91
2024/04/02 18:32:15;;;;;;;0.00;0.00;;;;;;;;;;6334783;22;19987;-91
2024/04/02 18:34:40;;;;;;;0.00;0.00;;;;;;;;;;6334726;22;20001;-92
2024/04/02 18:37:06;;;;;;;0.00;0.00;;;;;;;;;;6334581;22;19979;-90
2024/04/02 18:39:34;;;;;;;0.00;0.00;;;;;;;;;;6334304;22;19991;-90
2024/04/02 18:42:02;;;;;;;0.10;0.10;;;;;;;;;;6332989;22;19983;-91
2024/04/02 18:44:29;;;;;;;0.00;0.00;;;;;;;;;;6334112;22;19983;-91
2024/04/02 18:46:54;;;;;;;0.00;0.00;;;;;;;;;;6334383;22;19987;-91
2024/04/02 18:49:20;;;;;;;0.00;0.00;;;;;;;;;;6332783;22;20006;-91
2024/04/02 18:51:46;;;;;;;0.08;0.08;;;;;;;;;;6334784;22;19991;-90
2024/04/02 18:54:13;;;;;;;0.00;0.00;;;;;;;;;;6334219;22;19983;-91
2024/04/02 18:56:48;;;;;;;0.00;0.00;;;;;;;;;;6334257;22;19987;-91
2024/04/02 18:59:14;;;;;;;0.00;0.00;;;;;;;;;;6334406;22;20006;-91
2024/04/02 19:01:40;;;;;;;0.00;0.00;;;;;;;;;;6334321;22;20009;-90
2024/04/02 19:04:06;;;;;;;0.00;0.00;;;;;;;;;;6333324;22;19998;-91
2024/04/02 19:06:32;;;;;;;0.00;0.00;;;;;;;;;;6333953;22;19998;-91
2024/04/02 19:08:59;;;;;;;0.00;0.00;;;;;;;;;;6333586;22;20014;-91
2024/04/02 19:11:25;;;;;;;0.00;0.00;;;;;;;;;;6333722;22;20010;-91
2024/04/02 19:13:51;;;;;;;0.00;0.00;;;;;;;;;;6334332;22;19983;-91
2024/04/02 19:16:17;;;;;;;0.00;0.00;;;;;;;;;;6334207;22;20091;-89
2024/04/02 19:18:45;;;;;;;0.00;0.00;;;;;;;;;;6333705;22;19987;-90
2024/04/02 19:21:13;;;;;;;0.00;0.00;;;;;;;;;;6333499;22;19983;-90
2024/04/02 19:23:40;;;;;;;0.00;0.00;;;;;;;;;;6333543;22;19987;-91
2024/04/02 19:26:06;;;;;;;0.00;0.00;;;;;;;;;;6334000;22;19986;-90
2024/04/02 19:28:32;;;;;;;0.00;0.00;;;;;;;;;;6334733;22;19984;-91
2024/04/02 19:31:02;;;;;;;0.00;0.00;;;10.50;99.90;;;;;;6334743;22;20022;-91
2024/04/02 19:33:28;;;;;;;0.00;0.00;;;;;;;;;;6334084;22;20007;-91
2024/04/02 19:35:56;;;;;;;0.00;0.00;;;10.50;99.90;;;;;;6335211;22;19995;-91
2024/04/02 19:38:26;;;;;;;0.00;0.00;;;10.60;99.90;;;;;;6334590;22;19987;-90
2024/04/02 19:40:58;;;;;;;0.00;0.00;;;9.10;99.90;;;;;;6334364;22;19988;-91
2024/04/02 19:43:24;;;;;;;0.00;0.00;;;10.70;99.90;;;;;;6333112;22;20006;-90
2024/04/02 19:45:55;;;;;;;0.00;0.00;;;10.60;99.90;;;;;;6334696;22;20047;-91
2024/04/02 19:48:27;;;;;;;0.00;0.00;;;10.70;99.90;;;;;;6331246;22;19983;-92
2024/04/02 19:50:57;;;;;;;0.00;0.00;;;10.70;99.90;;;;;;6334263;22;19998;-91
2024/04/02 23:56:49;;;;;;;0.10;0.10;;;;;;;;;;6340590;22;20555;-91
2024/04/02 23:59:14;;;;;;;0.03;0.03;;;;;;;;;;6312726;22;20011;-91
